createdAt,value
2023-01-28T00:01:49.917Z,101147.44
2023-01-28T00:04:18.458Z,101165.34
2023-01-28T00:06:46.634Z,101156.06
2023-01-28T00:09:14.314Z,101156.19
2023-01-28T00:11:42.709Z,101157.88
2023-01-28T00:14:12.574Z,101161.16
2023-01-28T00:16:40.554Z,101154.50
2023-01-28T00:19:08.461Z,101158.97
2023-01-28T00:21:36.728Z,101157.38
2023-01-28T00:24:07.046Z,101164.16
2023-01-28T00:26:35.471Z,101162.47
2023-01-28T00:29:03.704Z,101157.50
2023-01-28T00:31:31.807Z,101157.38
2023-01-28T00:34:01.593Z,101154.03
2023-01-28T00:36:29.567Z,101158.41
2023-01-28T00:38:59.611Z,101160.22
2023-01-28T00:41:30.084Z,101155.63
2023-01-28T00:43:59.684Z,101153.94
2023-01-28T00:46:28.008Z,101157.41
2023-01-28T00:48:55.849Z,101149.84
2023-01-28T00:51:23.875Z,101154.94
2023-01-28T00:53:51.654Z,101153.22
2023-01-28T00:56:19.886Z,101150.66
2023-01-28T00:58:48.408Z,101149.84
2023-01-28T01:01:19.452Z,101154.88
2023-01-28T01:03:48.029Z,101147.81
2023-01-28T01:06:16.928Z,101150.06
2023-01-28T01:08:50.197Z,101160.16
2023-01-28T01:11:19.485Z,101160.28
2023-01-28T01:13:55.287Z,101154.81
2023-01-28T01:16:28.587Z,101160.16
2023-01-28T01:18:57.283Z,101153.97
2023-01-28T01:21:28.015Z,101156.63
2023-01-28T01:23:56.470Z,101151.56
2023-01-28T01:26:27.384Z,101155.00
2023-01-28T01:28:55.356Z,101159.34
2023-01-28T01:31:23.570Z,101152.91
2023-01-28T01:33:52.694Z,101147.34
2023-01-28T01:36:22.134Z,101141.81
2023-01-28T01:38:55.338Z,101144.91
2023-01-28T01:41:33.632Z,101144.84
2023-01-28T01:44:03.756Z,101148.34
2023-01-28T01:46:36.167Z,101145.25
2023-01-28T01:49:11.716Z,101146.06
2023-01-28T01:51:40.816Z,101152.63
2023-01-28T01:54:09.170Z,101150.06
2023-01-28T01:56:42.503Z,101147.47
2023-01-28T01:59:14.175Z,101155.06
2023-01-28T02:01:45.873Z,101149.53
2023-01-28T02:04:29.672Z,101153.66
2023-01-28T02:06:58.977Z,101156.97
2023-01-28T02:09:29.703Z,101155.28
2023-01-28T02:12:02.880Z,101160.38
2023-01-28T02:14:33.476Z,101156.09
2023-01-28T02:17:02.456Z,101150.22
2023-01-28T02:19:55.226Z,101153.50
2023-01-28T02:22:58.164Z,101158.03
2023-01-28T02:25:55.555Z,101154.56
2023-01-28T02:28:59.121Z,101155.28
2023-01-28T02:31:51.537Z,101148.53
2023-01-28T02:34:22.549Z,101149.34
2023-01-28T02:37:09.127Z,101156.34
2023-01-28T02:39:49.650Z,101147.44
2023-01-28T02:42:31.920Z,101152.44
2023-01-28T02:45:00.126Z,101155.81
2023-01-28T02:47:46.505Z,101152.31
2023-01-28T02:50:20.018Z,101150.66
2023-01-28T02:53:15.218Z,101159.94
2023-01-28T02:55:51.878Z,101152.09
2023-01-28T02:58:48.443Z,101158.25
2023-01-28T03:01:19.551Z,101158.91
2023-01-28T03:04:08.128Z,101163.97
2023-01-28T03:06:41.837Z,101160.72
2023-01-28T03:09:26.900Z,101161.03
2023-01-28T03:12:31.572Z,101153.06
2023-01-28T03:15:29.997Z,101159.25
2023-01-28T03:18:55.804Z,101159.41
2023-01-28T03:21:53.932Z,101164.41
2023-01-28T03:24:49.665Z,101162.53
2023-01-28T03:27:53.188Z,101159.09
2023-01-28T03:30:53.839Z,101157.31
2023-01-28T03:33:52.545Z,101151.41
2023-01-28T03:36:39.469Z,101157.41
2023-01-28T03:39:11.241Z,101160.81
2023-01-28T03:41:40.458Z,101157.28
2023-01-28T03:44:26.668Z,101160.66
2023-01-28T03:46:54.843Z,101162.81
2023-01-28T03:49:22.767Z,101160.00
2023-01-28T03:51:50.878Z,101170.47
2023-01-28T03:54:18.706Z,101165.97
2023-01-28T03:56:48.583Z,101161.56
2023-01-28T03:59:17.931Z,101159.88
2023-01-28T04:01:46.078Z,101157.47
2023-01-28T04:04:23.026Z,101153.16
2023-01-28T04:07:00.317Z,101153.94
2023-01-28T04:09:48.340Z,101155.72
2023-01-28T04:12:27.693Z,101159.19
2023-01-28T04:14:56.145Z,101162.66
2023-01-28T04:17:29.130Z,101161.56
2023-01-28T04:19:57.950Z,101158.06
2023-01-28T04:22:26.926Z,101173.53
2023-01-28T04:24:54.748Z,101164.00
2023-01-28T04:27:22.708Z,101164.97
2023-01-28T04:29:51.374Z,101162.38
2023-01-28T04:32:47.337Z,101165.94
2023-01-28T04:35:33.548Z,101159.00
2023-01-28T04:38:08.737Z,101164.59
2023-01-28T04:40:49.272Z,101162.13
2023-01-28T04:43:26.385Z,101171.78
2023-01-28T04:46:16.889Z,101168.91
2023-01-28T04:49:04.625Z,101167.34
2023-01-28T04:52:01.831Z,101166.19
2023-01-28T04:54:41.500Z,101167.22
2023-01-28T04:57:09.729Z,101172.41
2023-01-28T04:59:37.724Z,101164.06
2023-01-28T05:02:06.069Z,101175.03
2023-01-28T05:04:34.227Z,101175.19
2023-01-28T05:07:02.447Z,101165.97
2023-01-28T05:09:33.917Z,101177.81
2023-01-28T05:12:01.744Z,101176.72
2023-01-28T05:14:32.561Z,101179.22
2023-01-28T05:17:05.967Z,101182.91
2023-01-28T05:19:34.113Z,101168.16
2023-01-28T05:22:03.461Z,101180.97
2023-01-28T05:24:54.105Z,101177.66
2023-01-28T05:27:22.151Z,101172.53
2023-01-28T05:29:50.045Z,101184.75
2023-01-28T05:32:17.731Z,101182.69
2023-01-28T05:34:46.278Z,101181.34
2023-01-28T05:37:15.266Z,101190.81
2023-01-28T05:39:43.278Z,101184.75
2023-01-28T05:42:11.533Z,101197.34
2023-01-28T05:44:45.381Z,101191.53
2023-01-28T05:47:19.299Z,101188.00
2023-01-28T05:49:52.985Z,101189.75
2023-01-28T05:52:40.903Z,101193.13
2023-01-28T05:55:15.863Z,101188.63
2023-01-28T05:57:44.604Z,101189.63
2023-01-28T06:00:16.315Z,101195.03
2023-01-28T06:02:45.361Z,101189.81
2023-01-28T06:05:16.261Z,101190.75
2023-01-28T06:07:48.448Z,101194.09
2023-01-28T06:10:20.069Z,101195.03
2023-01-28T06:12:48.623Z,101205.97
2023-01-28T06:15:37.083Z,101200.78
2023-01-28T06:18:23.001Z,101208.50
2023-01-28T06:20:52.416Z,101209.34
2023-01-28T06:23:20.356Z,101205.91
2023-01-28T06:25:48.507Z,101206.53
2023-01-28T06:28:16.907Z,101212.69
2023-01-28T06:30:48.024Z,101213.78
2023-01-28T06:33:15.802Z,101211.28
2023-01-28T06:35:44.028Z,101221.69
2023-01-28T06:38:12.809Z,101218.13
2023-01-28T06:40:40.796Z,101218.28
2023-01-28T06:43:08.542Z,101218.31
2023-01-28T06:45:36.457Z,101220.81
2023-01-28T06:48:05.635Z,101216.69
2023-01-28T06:50:34.602Z,101223.50
2023-01-28T06:53:02.208Z,101220.88
2023-01-28T06:55:30.147Z,101215.59
2023-01-28T06:57:57.908Z,101223.34
2023-01-28T07:00:26.029Z,101227.47
2023-01-28T07:02:57.306Z,101225.94
2023-01-28T07:05:25.968Z,101231.19
2023-01-28T07:07:53.718Z,101235.56
2023-01-28T07:10:21.719Z,101235.50
2023-01-28T07:12:49.475Z,101233.09
2023-01-28T07:15:17.483Z,101241.69
2023-01-28T07:17:45.680Z,101238.84
2023-01-28T07:20:15.631Z,101235.38
2023-01-28T07:22:44.657Z,101240.66
2023-01-28T07:25:14.238Z,101238.25
2023-01-28T07:27:48.013Z,101238.25
2023-01-28T07:30:17.034Z,101237.22
2023-01-28T07:32:45.845Z,101243.41
2023-01-28T07:35:14.281Z,101243.25
2023-01-28T07:37:41.964Z,101245.28
2023-01-28T07:40:10.764Z,101253.75
2023-01-28T07:42:39.276Z,101250.44
2023-01-28T07:45:08.264Z,101253.09
2023-01-28T07:47:37.059Z,101255.84
2023-01-28T07:50:05.552Z,101247.88
2023-01-28T07:52:38.850Z,101240.16
2023-01-28T07:55:07.129Z,101242.53
2023-01-28T07:57:34.856Z,101242.72
2023-01-28T08:00:03.093Z,101245.31
2023-01-28T08:02:39.718Z,101242.72
2023-01-28T08:05:08.307Z,101246.31
2023-01-28T08:07:36.190Z,101249.00
2023-01-28T08:10:04.448Z,101248.16
2023-01-28T08:12:32.099Z,101251.34
2023-01-28T08:15:00.137Z,101250.31
2023-01-28T08:17:28.583Z,101246.06
2023-01-28T08:19:56.565Z,101244.22
2023-01-28T08:22:28.348Z,101246.84
2023-01-28T08:24:56.516Z,101248.84
2023-01-28T08:27:24.257Z,101253.84
2023-01-28T08:29:52.292Z,101256.75
2023-01-28T08:32:19.957Z,101250.66
2023-01-28T08:34:48.044Z,101248.28
2023-01-28T08:37:15.766Z,101246.69
2023-01-28T08:39:45.582Z,101247.56
2023-01-28T08:42:14.106Z,101255.16
2023-01-28T08:44:42.048Z,101244.13
2023-01-28T08:47:09.720Z,101250.16
2023-01-28T08:49:37.637Z,101254.19
2023-01-28T08:52:05.463Z,101256.34
2023-01-28T08:54:33.955Z,101250.97
2023-01-28T08:57:01.654Z,101246.72
2023-01-28T08:59:29.673Z,101251.13
2023-01-28T09:01:57.398Z,101257.94
2023-01-28T09:04:25.360Z,101254.44
2023-01-28T09:06:54.128Z,101259.47
2023-01-28T09:09:22.352Z,101258.75
2023-01-28T09:11:49.981Z,101255.41
2023-01-28T09:14:17.965Z,101259.47
2023-01-28T09:16:45.682Z,101263.88
2023-01-28T09:19:15.015Z,101271.50
2023-01-28T09:21:43.405Z,101270.00
2023-01-28T09:24:12.350Z,101272.84
2023-01-28T09:26:40.022Z,101275.41
2023-01-28T09:29:07.934Z,101278.88
2023-01-28T09:31:35.730Z,101278.72
2023-01-28T09:34:04.214Z,101278.78
2023-01-28T09:36:32.704Z,101277.94
2023-01-28T09:39:01.751Z,101272.03
2023-01-28T09:41:42.676Z,101280.66
2023-01-28T09:44:32.589Z,101275.56
2023-01-28T09:47:08.866Z,101275.56
2023-01-28T09:49:48.743Z,101272.47
2023-01-28T09:52:19.414Z,101280.34
2023-01-28T09:54:50.662Z,101267.47
2023-01-28T09:57:26.154Z,101270.16
2023-01-28T09:59:54.097Z,101274.28
2023-01-28T10:02:36.736Z,101265.03
2023-01-28T10:05:17.089Z,101264.09
2023-01-28T10:07:52.299Z,101259.59
2023-01-28T10:10:29.158Z,101261.44
2023-01-28T10:13:30.881Z,101263.28
2023-01-28T10:16:20.656Z,101258.22
2023-01-28T10:19:11.264Z,101256.69
2023-01-28T10:21:50.536Z,101253.34
2023-01-28T10:24:44.430Z,101253.09
2023-01-28T10:27:19.941Z,101258.03
2023-01-28T10:29:50.147Z,101252.25
2023-01-28T10:32:29.217Z,101250.75
2023-01-28T10:34:59.824Z,101254.09
2023-01-28T10:37:29.416Z,101258.44
2023-01-28T10:40:00.324Z,101252.97
2023-01-28T10:42:36.340Z,101240.09
2023-01-28T10:45:14.843Z,101251.28
2023-01-28T10:47:51.887Z,101248.66
2023-01-28T10:50:24.672Z,101247.66
2023-01-28T10:52:55.486Z,101247.69
2023-01-28T10:55:27.367Z,101244.31
2023-01-28T10:57:55.913Z,101244.28
2023-01-28T11:00:37.453Z,101243.56
2023-01-28T11:03:06.193Z,101238.25
2023-01-28T11:05:34.008Z,101238.97
2023-01-28T11:08:19.365Z,101234.53
2023-01-28T11:13:24.909Z,101229.88
2023-01-28T11:15:53.697Z,101232.22
2023-01-28T11:18:24.934Z,101228.88
2023-01-28T11:21:00.359Z,101227.00
2023-01-28T11:23:41.728Z,101216.53
2023-01-28T11:26:21.446Z,101216.81
2023-01-28T11:28:50.307Z,101223.47
2023-01-28T11:31:20.518Z,101228.63
2023-01-28T11:34:00.564Z,101218.47
2023-01-28T11:36:33.800Z,101228.22
2023-01-28T11:39:28.649Z,101222.13
2023-01-28T11:42:17.700Z,101218.50
2023-01-28T11:44:49.440Z,101216.06
2023-01-28T11:47:32.563Z,101212.38
2023-01-28T11:50:21.020Z,101214.16
2023-01-28T11:53:07.769Z,101218.31
2023-01-28T11:56:09.522Z,101218.66
2023-01-28T11:58:49.317Z,101217.56
2023-01-28T12:01:36.228Z,101212.34
2023-01-28T12:04:22.970Z,101214.00
2023-01-28T12:07:24.894Z,101212.41
2023-01-28T12:09:58.336Z,101212.34
2023-01-28T12:13:04.285Z,101216.72
2023-01-28T12:15:41.358Z,101205.56
2023-01-28T12:18:19.049Z,101208.81
2023-01-28T12:20:59.326Z,101213.00
2023-01-28T12:23:42.148Z,101211.50
2023-01-28T12:26:13.385Z,101209.91
2023-01-28T12:28:41.058Z,101208.97
2023-01-28T12:31:52.843Z,101212.72
2023-01-28T12:34:41.731Z,101216.69
2023-01-28T12:37:25.562Z,101204.59
2023-01-28T12:40:26.601Z,101203.19
2023-01-28T12:43:10.527Z,101203.97
2023-01-28T12:45:42.565Z,101200.19
2023-01-28T12:48:45.469Z,101198.59
2023-01-28T12:51:17.747Z,101203.06
2023-01-28T12:53:54.650Z,101207.38
2023-01-28T12:56:29.908Z,101205.56
2023-01-28T12:59:35.794Z,101204.50
2023-01-28T13:02:18.622Z,101209.63
2023-01-28T13:05:09.228Z,101223.81
2023-01-28T13:07:59.288Z,101215.81
2023-01-28T13:10:38.648Z,101211.47
2023-01-28T13:13:07.732Z,101207.88
2023-01-28T13:15:39.891Z,101209.41
2023-01-28T13:18:07.893Z,101211.25
2023-01-28T13:20:36.680Z,101207.78
2023-01-28T13:23:20.926Z,101200.94
2023-01-28T13:25:51.531Z,101207.81
2023-01-28T13:28:32.863Z,101209.69
2023-01-28T13:31:08.756Z,101206.69
2023-01-28T13:33:40.077Z,101211.06
2023-01-28T13:36:41.893Z,101219.41
2023-01-28T13:39:21.198Z,101223.88
2023-01-28T13:41:52.349Z,101217.72
2023-01-28T13:44:26.270Z,101219.56
2023-01-28T13:46:56.990Z,101221.25
2023-01-28T13:49:49.650Z,101221.47
2023-01-28T13:52:53.529Z,101219.53
2023-01-28T13:55:42.799Z,101228.19
2023-01-28T13:58:36.315Z,101228.84
2023-01-28T14:01:20.381Z,101225.31
2023-01-28T14:04:00.254Z,101227.88
2023-01-28T14:06:40.577Z,101218.41
2023-01-28T14:09:29.728Z,101210.88
2023-01-28T14:12:37.169Z,101216.56
2023-01-28T14:15:45.949Z,101219.31
2023-01-28T14:18:33.071Z,101212.34
2023-01-28T14:21:05.059Z,101217.47
2023-01-28T14:23:32.985Z,101210.47
2023-01-28T14:26:15.931Z,101209.03
2023-01-28T14:28:57.232Z,101211.59
2023-01-28T14:31:37.199Z,101216.63
2023-01-28T14:34:13.902Z,101213.16
2023-01-28T14:36:44.938Z,101218.34
2023-01-28T14:39:19.209Z,101220.75
2023-01-28T14:41:50.636Z,101219.13
2023-01-28T14:44:25.203Z,101220.28
2023-01-28T14:47:06.461Z,101226.09
2023-01-28T14:49:52.463Z,101224.50
2023-01-28T14:52:40.604Z,101227.69
2023-01-28T14:55:40.607Z,101227.72
2023-01-28T14:58:28.282Z,101224.03
2023-01-28T15:00:59.309Z,101219.72
2023-01-28T15:03:29.191Z,101220.19
2023-01-28T15:06:13.413Z,101217.38
2023-01-28T15:08:41.416Z,101225.91
2023-01-28T15:11:14.895Z,101224.28
2023-01-28T15:13:47.583Z,101225.94
2023-01-28T15:16:25.549Z,101235.19
2023-01-28T15:18:53.664Z,101232.75
2023-01-28T15:21:27.053Z,101231.81
2023-01-28T15:23:58.424Z,101235.97
2023-01-28T15:26:34.708Z,101235.97
2023-01-28T15:29:02.933Z,101238.31
2023-01-28T15:31:38.853Z,101240.97
2023-01-28T15:34:18.897Z,101246.34
2023-01-28T15:36:49.695Z,101240.31
2023-01-28T15:39:23.356Z,101251.50
2023-01-28T15:42:06.815Z,101254.88
2023-01-28T15:44:42.362Z,101242.59
2023-01-28T15:47:46.105Z,101246.81
2023-01-28T15:50:26.012Z,101258.22
2023-01-28T15:52:55.586Z,101257.09
2023-01-28T15:55:39.942Z,101253.56
2023-01-28T15:58:26.201Z,101257.16
2023-01-28T16:01:09.314Z,101242.75
2023-01-28T16:03:40.022Z,101239.84
2023-01-28T16:06:19.254Z,101245.00
2023-01-28T16:08:50.989Z,101248.22
2023-01-28T16:11:41.484Z,101250.88
2023-01-28T16:14:25.519Z,101252.78
2023-01-28T16:16:55.912Z,101262.28
2023-01-28T16:19:38.781Z,101258.72
2023-01-28T16:22:09.231Z,101270.50
2023-01-28T16:24:37.147Z,101270.25
2023-01-28T16:27:19.302Z,101265.63
2023-01-28T16:29:46.963Z,101263.03
2023-01-28T16:32:35.505Z,101252.72
2023-01-28T16:35:03.753Z,101258.09
2023-01-28T16:37:31.838Z,101255.03
2023-01-28T16:40:01.568Z,101257.16
2023-01-28T16:42:32.393Z,101265.88
2023-01-28T16:45:00.107Z,101256.19
2023-01-28T16:47:28.611Z,101264.59
2023-01-28T16:49:56.590Z,101258.41
2023-01-28T16:52:24.839Z,101266.19
2023-01-28T16:54:52.560Z,101254.94
2023-01-28T16:57:22.780Z,101262.53
2023-01-28T16:59:50.582Z,101266.06
2023-01-28T17:02:18.619Z,101274.88
2023-01-28T17:04:46.521Z,101267.78
2023-01-28T17:07:14.894Z,101272.78
2023-01-28T17:09:42.629Z,101259.84
2023-01-28T17:12:10.641Z,101255.03
2023-01-28T17:14:39.638Z,101266.00
2023-01-28T17:17:07.899Z,101269.81
2023-01-28T17:19:35.750Z,101264.41
2023-01-28T17:22:03.753Z,101265.75
2023-01-28T17:24:31.609Z,101267.53
2023-01-28T17:26:59.706Z,101266.81
2023-01-28T17:29:28.146Z,101267.94
2023-01-28T17:31:56.551Z,101266.19
2023-01-28T17:34:24.349Z,101266.03
2023-01-28T17:36:52.385Z,101273.03
2023-01-28T17:39:20.047Z,101271.09
2023-01-28T17:41:48.063Z,101276.31
2023-01-28T17:44:15.857Z,101280.31
2023-01-28T17:46:43.798Z,101280.31
2023-01-28T17:49:12.344Z,101275.19
2023-01-28T17:51:40.797Z,101279.38
2023-01-28T17:54:08.569Z,101277.91
2023-01-28T17:56:37.595Z,101275.25
2023-01-28T17:59:06.717Z,101275.28
2023-01-28T18:01:37.248Z,101280.44
2023-01-28T18:04:05.438Z,101284.75
2023-01-28T18:06:36.690Z,101293.25
2023-01-28T18:09:05.540Z,101291.56
2023-01-28T18:11:33.566Z,101290.81
2023-01-28T18:14:01.431Z,101287.16
2023-01-28T18:16:29.451Z,101290.53
2023-01-28T18:18:57.149Z,101295.59
2023-01-28T18:21:51.598Z,101293.88
2023-01-28T18:24:21.968Z,101292.19
2023-01-28T18:26:51.044Z,101300.00
2023-01-28T18:29:20.948Z,101291.53
2023-01-28T18:31:50.153Z,101298.38
2023-01-28T18:34:18.846Z,101304.47
2023-01-28T18:36:47.195Z,101314.06
2023-01-28T18:39:15.836Z,101315.66
2023-01-28T18:41:43.965Z,101313.00
2023-01-28T18:44:14.219Z,101310.44
2023-01-28T18:46:42.704Z,101312.09
2023-01-28T18:49:10.492Z,101313.88
2023-01-28T18:51:38.785Z,101310.25
2023-01-28T18:54:11.127Z,101312.75
2023-01-28T18:56:41.140Z,101303.53
2023-01-28T18:59:12.800Z,101305.97
2023-01-28T19:01:42.661Z,101295.69
2023-01-28T19:04:11.362Z,101298.00
2023-01-28T19:06:39.374Z,101298.97
2023-01-28T19:09:08.558Z,101303.00
2023-01-28T19:11:38.559Z,101311.75
2023-01-28T19:14:06.794Z,101299.75
2023-01-28T19:16:37.303Z,101291.72
2023-01-28T19:19:05.710Z,101304.81
2023-01-28T19:21:34.327Z,101303.41
2023-01-28T19:24:06.706Z,101298.19
2023-01-28T19:26:34.697Z,101310.38
2023-01-28T19:29:02.669Z,101299.00
2023-01-28T19:31:30.837Z,101310.03
2023-01-28T19:34:00.177Z,101317.03
2023-01-28T19:36:30.127Z,101309.28
2023-01-28T19:38:59.874Z,101308.75
2023-01-28T19:41:29.348Z,101304.38
2023-01-28T19:43:57.745Z,101308.31
2023-01-28T19:46:26.304Z,101310.28
2023-01-28T19:48:54.511Z,101322.22
2023-01-28T19:51:23.873Z,101321.13
2023-01-28T19:53:53.554Z,101312.00
2023-01-28T19:56:25.469Z,101306.78
2023-01-28T19:58:54.652Z,101310.19
2023-01-28T20:01:25.777Z,101315.34
2023-01-28T20:03:57.473Z,101316.03
2023-01-28T20:06:29.558Z,101318.13
2023-01-28T20:09:02.502Z,101325.63
2023-01-28T20:11:30.827Z,101328.97
2023-01-28T20:13:59.851Z,101325.88
2023-01-28T20:16:30.759Z,101321.53
2023-01-28T20:19:04.540Z,101320.19
2023-01-28T20:21:33.680Z,101323.38
2023-01-28T20:24:02.799Z,101333.69
2023-01-28T20:26:33.349Z,101320.69
2023-01-28T20:29:03.530Z,101322.56
2023-01-28T20:31:33.468Z,101324.97
2023-01-28T20:34:01.880Z,101328.81
2023-01-28T20:36:29.886Z,101327.31
2023-01-28T20:38:57.647Z,101322.00
2023-01-28T20:41:27.374Z,101328.19
2023-01-28T20:43:55.997Z,101335.00
2023-01-28T20:46:30.802Z,101337.38
2023-01-28T20:49:00.580Z,101340.19
2023-01-28T20:51:31.529Z,101341.41
2023-01-28T20:54:00.809Z,101335.56
2023-01-28T20:56:32.770Z,101335.28
2023-01-28T20:59:06.007Z,101333.84
2023-01-28T21:01:35.767Z,101346.16
2023-01-28T21:04:04.974Z,101352.84
2023-01-28T21:06:33.534Z,101355.91
2023-01-28T21:09:01.487Z,101348.44
2023-01-28T21:11:30.554Z,101352.53
2023-01-28T21:13:58.684Z,101348.97
2023-01-28T21:18:48.361Z,101356.59
2023-01-28T21:21:21.762Z,101351.59
2023-01-28T21:23:49.969Z,101357.75
2023-01-28T21:26:18.314Z,101354.44
2023-01-28T21:28:46.306Z,101350.72
2023-01-28T21:31:22.676Z,101346.56
2023-01-28T21:33:51.348Z,101336.72
2023-01-28T21:36:19.913Z,101334.00
2023-01-28T21:39:01.199Z,101328.09
2023-01-28T21:41:29.340Z,101324.41
2023-01-28T21:43:57.735Z,101318.47
2023-01-28T21:46:33.984Z,101322.56
2023-01-28T21:49:05.443Z,101328.47
2023-01-28T21:51:40.277Z,101336.78
2023-01-28T21:54:12.989Z,101324.75
2023-01-28T21:56:43.835Z,101314.34
2023-01-28T21:59:30.868Z,101310.84
2023-01-28T22:02:01.413Z,101310.97
2023-01-28T22:04:34.672Z,101324.81
2023-01-28T22:07:04.647Z,101317.78
2023-01-28T22:09:33.962Z,101303.09
2023-01-28T22:12:09.390Z,101302.13
2023-01-28T22:14:38.562Z,101300.63
2023-01-28T22:17:09.194Z,101290.47
2023-01-28T22:19:37.194Z,101288.59
2023-01-28T22:22:05.543Z,101291.22
2023-01-28T22:24:33.359Z,101285.03
2023-01-28T22:27:01.509Z,101289.69
2023-01-28T22:29:29.211Z,101280.47
2023-01-28T22:31:57.169Z,101272.63
2023-01-28T22:34:25.130Z,101281.94
2023-01-28T22:36:53.215Z,101282.19
2023-01-28T22:39:20.890Z,101285.00
2023-01-28T22:41:48.902Z,101278.25
2023-01-28T22:44:16.857Z,101296.41
2023-01-28T22:46:44.914Z,101292.41
2023-01-28T22:49:14.899Z,101295.69
2023-01-28T22:51:43.080Z,101297.34
2023-01-28T22:54:14.986Z,101299.63
2023-01-28T22:56:43.281Z,101309.19
2023-01-28T22:59:12.193Z,101305.47
2023-01-28T23:01:40.522Z,101314.66
2023-01-28T23:04:08.329Z,101313.31
2023-01-28T23:06:37.289Z,101311.81
2023-01-28T23:09:05.261Z,101324.41
2023-01-28T23:11:33.409Z,101327.25
2023-01-28T23:14:21.708Z,101340.56
2023-01-28T23:17:08.667Z,101339.19
2023-01-28T23:19:55.273Z,101334.63
2023-01-28T23:22:46.387Z,101330.66
2023-01-28T23:25:14.644Z,101322.22
2023-01-28T23:27:43.130Z,101325.88
2023-01-28T23:30:11.682Z,101328.19
2023-01-28T23:32:43.022Z,101326.13
2023-01-28T23:35:12.228Z,101319.56
2023-01-28T23:37:40.319Z,101316.88
2023-01-28T23:40:08.702Z,101318.69
2023-01-28T23:42:36.942Z,101311.81
2023-01-28T23:45:05.465Z,101303.84
2023-01-28T23:47:33.797Z,101302.50
2023-01-28T23:50:01.799Z,101305.97
2023-01-28T23:52:29.780Z,101298.34
2023-01-28T23:54:57.430Z,101306.81
2023-01-28T23:57:25.344Z,101304.25
2023-01-28T23:59:53.030Z,101299.78
